sensor_id;sensor_type;location;lat;lon;timestamp;P1;durP1;ratioP1;P2;durP2;ratioP2
12072;SDS011;6098;49.004;8.372;2024-01-25T00:11:35;9.01;;;2.16;;
12072;SDS011;6098;49.004;8.372;2024-01-25T00:26:26;11.61;;;2.57;;
12072;SDS011;6098;49.004;8.372;2024-01-25T00:41:18;6.51;;;1.98;;
12072;SDS011;6098;49.004;8.372;2024-01-25T00:56:10;6.88;;;2.03;;
12072;SDS011;6098;49.004;8.372;2024-01-25T01:11:02;5.81;;;1.62;;
12072;SDS011;6098;49.004;8.372;2024-01-25T01:25:54;8.64;;;2.16;;
12072;SDS011;6098;49.004;8.372;2024-01-25T01:40:45;4.91;;;1.98;;
12072;SDS011;6098;49.004;8.372;2024-01-25T01:55:37;10.07;;;1.91;;
12072;SDS011;6098;49.004;8.372;2024-01-25T02:10:28;7.64;;;1.99;;
12072;SDS011;6098;49.004;8.372;2024-01-25T02:25:20;9.18;;;1.94;;
12072;SDS011;6098;49.004;8.372;2024-01-25T02:40:12;6.13;;;1.78;;
12072;SDS011;6098;49.004;8.372;2024-01-25T02:55:03;7.30;;;1.82;;
12072;SDS011;6098;49.004;8.372;2024-01-25T03:09:54;4.61;;;1.76;;
12072;SDS011;6098;49.004;8.372;2024-01-25T03:24:45;9.27;;;2.24;;
12072;SDS011;6098;49.004;8.372;2024-01-25T03:39:39;6.03;;;1.96;;
12072;SDS011;6098;49.004;8.372;2024-01-25T03:54:30;10.26;;;2.14;;
12072;SDS011;6098;49.004;8.372;2024-01-25T04:09:21;9.99;;;2.31;;
12072;SDS011;6098;49.004;8.372;2024-01-25T04:24:15;7.80;;;1.96;;
12072;SDS011;6098;49.004;8.372;2024-01-25T04:39:05;7.66;;;2.40;;
12072;SDS011;6098;49.004;8.372;2024-01-25T04:53:57;7.26;;;1.93;;
12072;SDS011;6098;49.004;8.372;2024-01-25T05:08:50;15.33;;;2.30;;
12072;SDS011;6098;49.004;8.372;2024-01-25T05:23:41;8.26;;;2.07;;
12072;SDS011;6098;49.004;8.372;2024-01-25T05:38:33;9.01;;;2.32;;
12072;SDS011;6098;49.004;8.372;2024-01-25T05:53:24;10.89;;;2.63;;
12072;SDS011;6098;49.004;8.372;2024-01-25T06:08:14;18.02;;;3.20;;
12072;SDS011;6098;49.004;8.372;2024-01-25T06:23:04;4.92;;;2.03;;
12072;SDS011;6098;49.004;8.372;2024-01-25T06:37:56;15.96;;;3.08;;
12072;SDS011;6098;49.004;8.372;2024-01-25T06:52:46;10.82;;;2.82;;
12072;SDS011;6098;49.004;8.372;2024-01-25T07:07:37;12.20;;;2.79;;
12072;SDS011;6098;49.004;8.372;2024-01-25T07:22:29;8.59;;;2.52;;
12072;SDS011;6098;49.004;8.372;2024-01-25T07:37:21;10.01;;;2.80;;
12072;SDS011;6098;49.004;8.372;2024-01-25T07:52:12;7.58;;;2.63;;
12072;SDS011;6098;49.004;8.372;2024-01-25T08:07:04;6.72;;;2.64;;
12072;SDS011;6098;49.004;8.372;2024-01-25T08:21:55;9.11;;;2.54;;
12072;SDS011;6098;49.004;8.372;2024-01-25T08:36:48;3.46;;;1.74;;
12072;SDS011;6098;49.004;8.372;2024-01-25T08:51:41;7.36;;;1.84;;
12072;SDS011;6098;49.004;8.372;2024-01-25T09:06:33;5.94;;;1.82;;
12072;SDS011;6098;49.004;8.372;2024-01-25T09:21:26;6.27;;;2.00;;
12072;SDS011;6098;49.004;8.372;2024-01-25T09:36:20;7.76;;;1.78;;
12072;SDS011;6098;49.004;8.372;2024-01-25T09:51:13;7.39;;;1.82;;
12072;SDS011;6098;49.004;8.372;2024-01-25T10:06:05;7.33;;;2.12;;
12072;SDS011;6098;49.004;8.372;2024-01-25T10:20:57;6.01;;;1.66;;
12072;SDS011;6098;49.004;8.372;2024-01-25T10:35:52;7.90;;;2.53;;
12072;SDS011;6098;49.004;8.372;2024-01-25T10:50:42;6.22;;;1.72;;
12072;SDS011;6098;49.004;8.372;2024-01-25T11:05:34;7.84;;;2.08;;
12072;SDS011;6098;49.004;8.372;2024-01-25T11:20:26;9.00;;;1.72;;
12072;SDS011;6098;49.004;8.372;2024-01-25T11:35:16;6.76;;;1.68;;
12072;SDS011;6098;49.004;8.372;2024-01-25T11:50:09;9.69;;;2.06;;
12072;SDS011;6098;49.004;8.372;2024-01-25T12:05:01;8.21;;;1.90;;
12072;SDS011;6098;49.004;8.372;2024-01-25T12:19:56;5.70;;;1.76;;
12072;SDS011;6098;49.004;8.372;2024-01-25T12:34:56;12.77;;;2.08;;
12072;SDS011;6098;49.004;8.372;2024-01-25T12:49:51;5.72;;;2.03;;
12072;SDS011;6098;49.004;8.372;2024-01-25T13:04:44;6.66;;;1.79;;
12072;SDS011;6098;49.004;8.372;2024-01-25T13:19:35;5.02;;;1.78;;
12072;SDS011;6098;49.004;8.372;2024-01-25T13:34:28;6.39;;;1.87;;
12072;SDS011;6098;49.004;8.372;2024-01-25T13:49:22;6.64;;;1.83;;
12072;SDS011;6098;49.004;8.372;2024-01-25T14:04:14;6.06;;;1.57;;
12072;SDS011;6098;49.004;8.372;2024-01-25T14:19:06;4.04;;;1.31;;
12072;SDS011;6098;49.004;8.372;2024-01-25T14:33:56;4.09;;;1.54;;
12072;SDS011;6098;49.004;8.372;2024-01-25T14:48:48;4.73;;;1.38;;
12072;SDS011;6098;49.004;8.372;2024-01-25T15:03:38;3.80;;;1.46;;
12072;SDS011;6098;49.004;8.372;2024-01-25T15:18:30;4.69;;;1.43;;
12072;SDS011;6098;49.004;8.372;2024-01-25T15:33:21;3.77;;;1.57;;
12072;SDS011;6098;49.004;8.372;2024-01-25T15:48:12;3.82;;;1.36;;
12072;SDS011;6098;49.004;8.372;2024-01-25T16:03:04;4.49;;;1.58;;
12072;SDS011;6098;49.004;8.372;2024-01-25T16:17:56;3.84;;;1.51;;
12072;SDS011;6098;49.004;8.372;2024-01-25T16:32:47;5.31;;;2.57;;
12072;SDS011;6098;49.004;8.372;2024-01-25T16:47:38;4.93;;;2.34;;
12072;SDS011;6098;49.004;8.372;2024-01-25T17:02:31;7.70;;;3.03;;
12072;SDS011;6098;49.004;8.372;2024-01-25T17:17:23;8.42;;;3.33;;
12072;SDS011;6098;49.004;8.372;2024-01-25T17:32:15;5.56;;;3.04;;
12072;SDS011;6098;49.004;8.372;2024-01-25T17:47:07;8.89;;;3.70;;
12072;SDS011;6098;49.004;8.372;2024-01-25T18:01:59;5.22;;;3.53;;
12072;SDS011;6098;49.004;8.372;2024-01-25T18:16:51;7.66;;;3.88;;
12072;SDS011;6098;49.004;8.372;2024-01-25T18:31:44;8.14;;;4.98;;
12072;SDS011;6098;49.004;8.372;2024-01-25T18:46:35;9.29;;;5.70;;
12072;SDS011;6098;49.004;8.372;2024-01-25T19:01:26;8.10;;;5.76;;
12072;SDS011;6098;49.004;8.372;2024-01-25T19:16:18;9.87;;;6.54;;
12072;SDS011;6098;49.004;8.372;2024-01-25T19:31:10;10.12;;;5.72;;
12072;SDS011;6098;49.004;8.372;2024-01-25T19:46:02;9.89;;;6.12;;
12072;SDS011;6098;49.004;8.372;2024-01-25T20:00:55;12.96;;;7.72;;
12072;SDS011;6098;49.004;8.372;2024-01-25T20:15:50;11.84;;;7.20;;
12072;SDS011;6098;49.004;8.372;2024-01-25T20:30:42;16.17;;;9.27;;
12072;SDS011;6098;49.004;8.372;2024-01-25T20:45:36;15.41;;;10.27;;
12072;SDS011;6098;49.004;8.372;2024-01-25T21:00:28;21.33;;;12.19;;
12072;SDS011;6098;49.004;8.372;2024-01-25T21:15:21;18.98;;;12.08;;
12072;SDS011;6098;49.004;8.372;2024-01-25T21:30:14;13.63;;;9.03;;
12072;SDS011;6098;49.004;8.372;2024-01-25T21:45:07;15.93;;;9.17;;
12072;SDS011;6098;49.004;8.372;2024-01-25T21:59:59;17.08;;;9.78;;
12072;SDS011;6098;49.004;8.372;2024-01-25T22:14:45;15.12;;;9.50;;
12072;SDS011;6098;49.004;8.372;2024-01-25T22:29:37;18.51;;;11.33;;
12072;SDS011;6098;49.004;8.372;2024-01-25T22:44:29;14.48;;;9.72;;
12072;SDS011;6098;49.004;8.372;2024-01-25T22:59:21;18.94;;;11.56;;
12072;SDS011;6098;49.004;8.372;2024-01-25T23:14:24;14.44;;;9.78;;
12072;SDS011;6098;49.004;8.372;2024-01-25T23:29:16;14.27;;;9.17;;
12072;SDS011;6098;49.004;8.372;2024-01-25T23:44:08;13.17;;;8.50;;
12072;SDS011;6098;49.004;8.372;2024-01-25T23:59:03;11.70;;;8.30;;
